Time;durP1;ratioP1;P1;durP2;ratioP2;P2;SDS_P1;SDS_P2;PMS_P1;PMS_P2;Temp;Humidity;BMP_temperature;BMP_pressure;BME280_temperature;BME280_humidity;BME280_pressure;Samples;Min_cycle;Max_cycle;Signal;HPM_P1;HPM_P2
2022/03/23 00:00:22;;;;;;;0.30;0.20;;;;;;;3.43;88.27;101620.25;5025347;28;20518;-47
2022/03/23 00:02:49;;;;;;;1.23;1.23;;;;;;;3.41;86.88;101620.16;5021735;28;20506;-47
2022/03/23 00:05:17;;;;;;;0.30;0.20;;;;;;;3.20;88.53;101620.59;5018678;28;20506;-48
2022/03/23 00:07:44;;;;;;;0.30;0.20;;;;;;;3.26;87.96;101612.84;5022636;28;20452;-47
2022/03/23 00:10:11;;;;;;;0.30;0.20;;;;;;;3.33;88.74;101618.25;5025344;28;20476;-48
2022/03/23 00:12:42;;;;;;;0.30;0.20;;;;;;;3.17;89.24;101625.78;5022857;28;20493;-48
2022/03/23 00:15:10;;;;;;;0.30;0.10;;;;;;;3.16;89.78;101613.50;5029935;28;20454;-47
2022/03/23 00:17:37;;;;;;;0.30;0.20;;;;;;;3.41;89.43;101611.41;5020863;28;20506;-47
2022/03/23 00:20:04;;;;;;;0.80;0.77;;;;;;;3.26;89.01;101615.47;5025692;28;20477;-47
2022/03/23 00:22:31;;;;;;;0.30;0.20;;;;;;;3.27;88.99;101621.59;5023334;28;20468;-47
2022/03/23 00:24:58;;;;;;;0.30;0.20;;;;;;;3.12;90.09;101621.25;5018389;28;20456;-47
2022/03/23 00:27:25;;;;;;;0.33;0.33;;;;;;;3.17;90.01;101615.28;5020827;28;20452;-47
2022/03/23 00:29:51;;;;;;;0.30;0.30;;;;;;;3.13;89.67;101617.78;5024900;28;21032;-47
2022/03/23 00:32:18;;;;;;;1.63;1.53;;;;;;;3.30;89.88;101616.44;5023592;28;20545;-47
2022/03/23 00:34:45;;;;;;;0.30;0.20;;;;;;;3.12;89.76;101621.25;5018370;28;20836;-46
2022/03/23 00:37:12;;;;;;;0.20;0.20;;;;;;;3.05;89.12;101620.25;5020264;28;20464;-47
2022/03/23 00:39:38;;;;;;;0.30;0.20;;;;;;;3.17;89.77;101625.78;5028821;28;21004;-47
2022/03/23 00:42:05;;;;;;;0.20;0.10;;;;;;;2.98;89.96;101619.19;5027973;28;20444;-48
2022/03/23 00:44:32;;;;;;;0.30;0.20;;;;;;;2.96;90.32;101620.03;5020824;28;21021;-47
2022/03/23 00:46:59;;;;;;;0.20;0.10;;;;;;;2.95;90.02;101620.88;5027989;28;21018;-47
2022/03/23 00:49:26;;;;;;;0.20;0.20;;;;;;;3.05;90.36;101614.09;5021937;28;20458;-47
2022/03/23 00:51:53;;;;;;;0.30;0.20;;;;;;;3.07;89.70;101615.91;5023147;28;20472;-47
2022/03/23 00:54:21;;;;;;;0.30;0.20;;;;;;;3.06;89.38;101608.00;5028845;28;20448;-47
2022/03/23 00:56:50;;;;;;;0.60;0.60;;;;;;;2.94;89.43;101608.59;5028329;28;20455;-48
2022/03/23 00:59:22;;;;;;;0.30;0.20;;;;;;;2.93;89.32;101610.34;5009292;28;20460;-48
2022/03/23 01:01:49;;;;;;;1.80;0.87;;;;;;;2.90;90.36;101617.25;5021802;28;20472;-47
2022/03/23 01:04:16;;;;;;;0.30;0.30;;;;;;;2.89;89.23;101615.50;5027710;28;20966;-47
2022/03/23 01:06:43;;;;;;;3.70;1.23;;;;;;;2.85;90.39;101618.88;5028536;28;20451;-47
2022/03/23 01:09:11;;;;;;;0.83;0.83;;;;;;;2.77;91.25;101615.19;5023390;28;20452;-48
2022/03/23 01:11:37;;;;;;;0.30;0.20;;;;;;;2.71;89.77;101607.16;5021633;28;20468;-47
2022/03/23 01:14:05;;;;;;;0.20;0.10;;;;;;;2.68;89.81;101608.84;5035214;28;20537;-48
2022/03/23 01:16:33;;;;;;;0.30;0.23;;;;;;;2.72;90.19;101609.81;5030517;28;20448;-48
2022/03/23 01:19:00;;;;;;;0.30;0.30;;;;;;;2.74;91.22;101615.09;5024403;28;20822;-47
2022/03/23 01:21:27;;;;;;;0.50;0.50;;;;;;;2.72;91.19;101619.41;5021869;28;20560;-49
2022/03/23 01:23:54;;;;;;;0.30;0.20;;;;;;;2.76;91.05;101621.28;5024718;28;20810;-49
2022/03/23 01:26:21;;;;;;;0.20;0.10;;;;;;;2.70;90.79;101619.38;5028097;28;20804;-49
2022/03/23 01:28:47;;;;;;;0.20;0.10;;;;;;;2.73;89.93;101615.94;5025441;28;20768;-49
2022/03/23 01:31:14;;;;;;;0.30;0.20;;;;;;;2.70;90.66;101618.50;5021245;28;20490;-50
2022/03/23 01:33:41;;;;;;;0.30;0.20;;;;;;;2.83;91.07;101615.31;5024046;28;21022;-49
2022/03/23 01:36:07;;;;;;;0.30;0.30;;;;;;;2.75;90.06;101617.78;5027783;28;20488;-50
2022/03/23 01:38:34;;;;;;;0.20;0.10;;;;;;;2.68;91.21;101610.59;5025268;28;20462;-50
2022/03/23 01:41:00;;;;;;;0.30;0.20;;;;;;;2.62;91.16;101618.31;5021097;28;20503;-50
2022/03/23 01:43:28;;;;;;;4.30;2.03;;;;;;;2.66;91.57;101615.81;5024173;28;20445;-49
2022/03/23 01:45:55;;;;;;;0.20;0.20;;;;;;;2.65;91.18;101607.91;5024241;28;20447;-50
2022/03/23 01:48:22;;;;;;;3.50;3.20;;;;;;;2.57;91.75;101604.19;5022304;28;20547;-50
2022/03/23 01:50:50;;;;;;;0.60;0.60;;;;;;;2.45;91.69;101611.72;5027125;28;20526;-50
2022/03/23 01:53:17;;;;;;;0.30;0.20;;;;;;;2.50;92.00;101608.41;5026356;28;20557;-50
2022/03/23 01:55:45;;;;;;;0.20;0.20;;;;;;;2.64;90.51;101601.75;5021045;28;20534;-50
2022/03/23 01:58:11;;;;;;;0.20;0.20;;;;;;;2.66;90.43;101612.28;5021792;28;20449;-50
2022/03/23 02:00:38;;;;;;;0.20;0.17;;;;;;;2.49;90.51;101606.63;5027380;28;21000;-49
2022/03/23 02:03:06;;;;;;;0.30;0.20;;;;;;;2.35;90.66;101611.53;5026810;28;20529;-50
2022/03/23 02:05:32;;;;;;;0.20;0.10;;;;;;;2.33;91.72;101609.69;5020698;28;20448;-50
2022/03/23 02:07:59;;;;;;;0.20;0.20;;;;;;;2.31;91.10;101607.03;5021651;28;21279;-49
2022/03/23 02:10:28;;;;;;;3.03;1.17;;;;;;;2.20;91.67;101613.75;5027606;28;20476;-49
2022/03/23 02:12:54;;;;;;;0.77;0.77;;;;;;;2.29;93.31;101611.34;5027457;28;20483;-48
2022/03/23 02:15:23;;;;;;;0.20;0.10;;;;;;;2.22;92.92;101612.03;5031121;28;20444;-49
2022/03/23 02:17:53;;;;;;;4.03;1.70;;;;;;;2.32;91.97;101614.03;5020725;28;20520;-49
2022/03/23 02:20:20;;;;;;;0.20;0.10;;;;;;;2.17;92.76;101612.75;5020950;28;20474;-50
2022/03/23 02:22:47;;;;;;;0.20;0.20;;;;;;;2.14;92.12;101615.31;5031018;28;20883;-50
2022/03/23 02:25:21;;;;;;;0.20;0.10;;;;;;;2.31;92.89;101608.75;5021346;28;20456;-49
2022/03/23 02:27:49;;;;;;;0.20;0.20;;;;;;;2.19;92.76;101617.19;5020585;28;20463;-49
2022/03/23 02:30:16;;;;;;;0.40;0.40;;;;;;;2.07;92.61;101604.66;5025120;28;20468;-49
2022/03/23 02:32:43;;;;;;;0.30;0.20;;;;;;;2.21;93.98;101609.38;5026636;28;20491;-49
2022/03/23 02:35:11;;;;;;;0.20;0.10;;;;;;;2.11;93.41;101608.25;5022828;28;20491;-49
2022/03/23 02:37:39;;;;;;;0.20;0.10;;;;;;;1.98;94.07;101622.75;5020437;28;20460;-50
2022/03/23 02:40:09;;;;;;;0.30;0.20;;;;;;;1.90;94.61;101612.88;5024020;28;20468;-49
2022/03/23 02:42:37;;;;;;;0.20;0.10;;;;;;;1.91;93.86;101612.91;5026833;28;20868;-49
2022/03/23 02:45:05;;;;;;;0.30;0.10;;;;;;;2.02;93.12;101615.84;5018104;28;20903;-49
2022/03/23 02:47:32;;;;;;;0.30;0.30;;;;;;;2.12;92.58;101614.38;5026995;28;20480;-50
2022/03/23 02:49:58;;;;;;;0.30;0.23;;;;;;;2.19;92.31;101614.56;5024163;28;20472;-49
2022/03/23 02:52:27;;;;;;;0.20;0.10;;;;;;;2.11;92.63;101616.09;5019664;28;20447;-50
2022/03/23 03:03:14;;;;;;;0.20;0.17;;;;;;;2.02;92.89;101623.72;5019967;28;20472;-49
2022/03/23 03:05:41;;;;;;;0.20;0.20;;;;;;;2.03;92.98;101629.00;5019380;28;20522;-50
2022/03/23 03:10:54;;;;;;;0.30;0.20;;;;;;;1.88;93.94;101630.31;5011734;28;20470;-50
2022/03/23 03:13:21;;;;;;;0.20;0.10;;;;;;;1.81;92.87;101634.50;5019632;28;20865;-50
2022/03/23 03:15:47;;;;;;;0.67;0.67;;;;;;;1.88;93.35;101633.81;5030422;28;20483;-50
2022/03/23 03:18:14;;;;;;;0.20;0.10;;;;;;;2.02;92.07;101636.81;5019312;28;20996;-50
2022/03/23 03:20:40;;;;;;;0.30;0.30;;;;;;;1.78;92.52;101631.78;5022920;28;20515;-50
2022/03/23 03:23:07;;;;;;;0.30;0.30;;;;;;;1.74;94.33;101637.78;5026191;28;20469;-50
2022/03/23 03:25:33;;;;;;;0.63;0.63;;;;;;;1.86;93.93;101634.63;5022247;28;20510;-50
2022/03/23 03:28:00;;;;;;;2.73;1.53;;;;;;;1.64;94.61;101633.09;5019023;28;20964;-50
2022/03/23 03:30:27;;;;;;;0.30;0.20;;;;;;;1.61;93.76;101630.41;5023360;28;20473;-50
2022/03/23 03:32:53;;;;;;;0.20;0.10;;;;;;;1.62;94.14;101629.56;5025696;28;20523;-50
2022/03/23 03:35:20;;;;;;;0.30;0.20;;;;;;;1.73;93.34;101630.75;5021998;28;20964;-50
2022/03/23 03:37:46;;;;;;;0.20;0.10;;;;;;;1.52;93.72;101625.78;5018905;28;20451;-49
2022/03/23 03:40:13;;;;;;;0.50;0.50;;;;;;;1.90;93.22;101634.75;5022725;28;20469;-50
2022/03/23 03:42:40;;;;;;;0.30;0.30;;;;;;;1.75;93.49;101632.56;5025638;28;20456;-49
2022/03/23 03:45:07;;;;;;;0.53;0.53;;;;;;;1.59;93.81;101635.59;5016590;28;20448;-50
2022/03/23 03:47:34;;;;;;;0.30;0.10;;;;;;;1.46;94.16;101636.97;5025638;28;20487;-50
2022/03/23 03:50:01;;;;;;;0.20;0.17;;;;;;;1.52;94.30;101641.53;5022675;28;20467;-50
2022/03/23 03:52:27;;;;;;;0.30;0.20;;;;;;;1.42;93.85;101639.47;5018920;28;20451;-50
2022/03/23 03:54:54;;;;;;;0.70;0.70;;;;;;;1.37;95.36;101649.81;5021927;28;20554;-50
2022/03/23 03:57:21;;;;;;;0.20;0.20;;;;;;;1.40;94.33;101644.66;5025723;28;20504;-50
2022/03/23 03:59:47;;;;;;;0.50;0.50;;;;;;;1.43;93.66;101647.34;5023056;28;20452;-50
2022/03/23 04:02:14;;;;;;;0.83;0.83;;;;;;;1.33;94.23;101653.16;5018377;28;20562;-50
2022/03/23 04:04:41;;;;;;;0.30;0.20;;;;;;;1.35;94.02;101654.06;5021446;28;21001;-50
2022/03/23 04:07:08;;;;;;;0.20;0.10;;;;;;;1.31;94.07;101656.56;5025395;28;20456;-49
2022/03/23 04:09:34;;;;;;;0.20;0.10;;;;;;;1.57;93.38;101660.88;5023200;28;20447;-49
2022/03/23 04:12:01;;;;;;;0.20;0.10;;;;;;;1.29;93.39;101658.25;5019797;28;20856;-50
2022/03/23 04:14:27;;;;;;;0.57;0.57;;;;;;;1.43;93.93;101655.22;5035436;28;20479;-49
2022/03/23 04:16:55;;;;;;;0.20;0.10;;;;;;;1.36;93.72;101654.97;5026210;28;20455;-50
2022/03/23 04:19:22;;;;;;;0.30;0.20;;;;;;;1.11;94.80;101653.34;5028463;28;20455;-49
2022/03/23 04:21:48;;;;;;;0.20;0.20;;;;;;;1.29;95.42;101658.25;5022589;28;20542;-50
2022/03/23 04:24:15;;;;;;;0.20;0.10;;;;;;;1.26;94.75;101658.16;5023542;28;20886;-49
2022/03/23 04:26:44;;;;;;;0.20;0.10;;;;;;;1.32;93.42;101659.22;5029250;28;20519;-49
2022/03/23 04:29:10;;;;;;;0.20;0.10;;;;;;;1.39;94.03;101668.19;5028613;28;20945;-49
2022/03/23 04:31:38;;;;;;;0.47;0.47;;;;;;;1.14;93.97;101670.03;5022709;28;20545;-50
2022/03/23 04:34:05;;;;;;;0.30;0.30;;;;;;;1.17;94.60;101672.72;5023107;28;20891;-50
2022/03/23 04:36:32;;;;;;;0.20;0.10;;;;;;;1.11;94.61;101663.81;5022756;28;20936;-49
2022/03/23 04:38:59;;;;;;;2.60;2.50;;;;;;;1.25;94.49;101664.25;5022125;28;20456;-49
2022/03/23 04:41:26;;;;;;;0.70;0.67;;;;;;;1.21;94.75;101665.84;5028604;28;20468;-49
2022/03/23 04:43:53;;;;;;;0.30;0.20;;;;;;;1.02;94.82;101668.75;5028988;28;20798;-50
2022/03/23 04:46:19;;;;;;;0.20;0.10;;;;;;;1.10;95.08;101673.41;5022810;28;20455;-50
2022/03/23 04:48:46;;;;;;;0.20;0.10;;;;;;;1.02;95.42;101676.59;5021970;28;20953;-50
2022/03/23 04:51:13;;;;;;;0.20;0.20;;;;;;;1.08;95.12;101679.41;5028559;28;20473;-50
2022/03/23 04:53:39;;;;;;;0.20;0.10;;;;;;;0.94;94.55;101678.06;5029010;28;20525;-51
2022/03/23 04:56:06;;;;;;;3.83;2.10;;;;;;;0.99;94.30;101686.97;5023043;28;20505;-50
2022/03/23 04:58:34;;;;;;;0.20;0.10;;;;;;;0.93;95.50;101682.41;5021841;28;20511;-50
2022/03/23 05:01:01;;;;;;;0.20;0.10;;;;;;;0.91;95.50;101686.72;5027603;28;20523;-50
2022/03/23 05:03:29;;;;;;;0.30;0.30;;;;;;;0.93;97.29;101677.19;5028649;28;20469;-50
2022/03/23 05:05:56;;;;;;;0.53;0.53;;;;;;;0.93;96.20;101676.28;5024050;28;20934;-50
2022/03/23 05:08:23;;;;;;;0.43;0.40;;;;;;;1.00;96.49;101686.13;5022120;28;20518;-49
2022/03/23 05:10:51;;;;;;;0.40;0.40;;;;;;;1.03;98.52;101681.88;5026747;28;20877;-50
2022/03/23 05:13:17;;;;;;;0.30;0.20;;;;;;;1.08;96.61;101684.63;5030480;28;20541;-50
2022/03/23 05:15:44;;;;;;;0.20;0.10;;;;;;;1.01;96.02;101690.53;5032920;28;20462;-49
2022/03/23 05:18:12;;;;;;;1.80;1.77;;;;;;;0.96;95.34;101684.22;5021900;28;20456;-50
2022/03/23 05:20:39;;;;;;;0.20;0.10;;;;;;;1.04;95.74;101678.41;5024329;28;20481;-49
2022/03/23 05:23:06;;;;;;;0.50;0.50;;;;;;;0.92;94.91;101678.00;5027973;28;20460;-50
2022/03/23 05:25:33;;;;;;;0.80;0.80;;;;;;;0.98;95.54;101675.63;5024634;28;20918;-50
2022/03/23 05:27:59;;;;;;;0.50;0.50;;;;;;;0.84;96.32;101687.38;5021778;28;20456;-50
2022/03/23 05:30:26;;;;;;;0.30;0.20;;;;;;;0.87;96.42;101680.50;5024817;28;20476;-50
2022/03/23 05:32:52;;;;;;;0.70;0.70;;;;;;;0.86;96.58;101691.81;5028088;28;20523;-50
2022/03/23 05:35:19;;;;;;;0.60;0.60;;;;;;;1.03;96.22;101691.47;5025373;28;20568;-50
2022/03/23 05:37:46;;;;;;;1.63;1.53;;;;;;;1.27;93.83;101694.00;5020849;28;20456;-50
2022/03/23 05:40:13;;;;;;;0.20;0.20;;;;;;;1.03;95.85;101694.06;5023696;28;20888;-50
2022/03/23 05:42:40;;;;;;;0.33;0.33;;;;;;;0.98;97.49;101691.31;5027981;28;20510;-50
2022/03/23 05:45:07;;;;;;;0.20;0.10;;;;;;;1.04;96.80;101696.75;5020196;28;20819;-50
2022/03/23 05:47:36;;;;;;;0.30;0.27;;;;;;;0.97;97.95;101701.75;5027569;28;20441;-50
2022/03/23 05:50:04;;;;;;;0.20;0.13;;;;;;;1.04;98.17;101701.97;5025917;28;20471;-50
2022/03/23 05:52:30;;;;;;;0.30;0.20;;;;;;;0.97;97.35;101692.16;5020787;28;20489;-50
2022/03/23 05:54:57;;;;;;;1.90;1.80;;;;;;;1.06;97.87;101702.03;5022326;28;20536;-51
2022/03/23 05:57:23;;;;;;;0.20;0.10;;;;;;;1.08;99.39;101703.84;5027451;28;20453;-50
2022/03/23 05:59:50;;;;;;;0.20;0.10;;;;;;;1.25;99.35;101706.16;5026085;28;20892;-50
2022/03/23 06:02:17;;;;;;;0.20;0.17;;;;;;;1.24;98.38;101702.63;5020773;28;20941;-50
2022/03/23 06:04:44;;;;;;;0.20;0.10;;;;;;;1.46;99.37;101709.44;5021924;28;20445;-49
2022/03/23 06:07:10;;;;;;;0.20;0.10;;;;;;;1.60;98.10;101708.13;5027251;28;20491;-49
2022/03/23 06:09:37;;;;;;;0.20;0.10;;;;;;;2.05;96.62;101707.69;5026327;28;20451;-50
2022/03/23 06:12:04;;;;;;;0.20;0.10;;;;;;;2.01;97.53;101711.97;5020684;28;20517;-51
2022/03/23 06:14:32;;;;;;;0.20;0.10;;;;;;;1.98;96.79;101711.00;5032674;28;21000;-51
2022/03/23 06:16:59;;;;;;;0.20;0.10;;;;;;;2.07;98.07;101706.03;5027561;28;20526;-50
2022/03/23 06:19:25;;;;;;;1.60;1.60;;;;;;;2.24;97.33;101709.13;5026748;28;20452;-50
2022/03/23 06:21:52;;;;;;;0.20;0.20;;;;;;;2.31;96.31;101705.81;5019771;28;20491;-50
2022/03/23 06:24:19;;;;;;;0.30;0.30;;;;;;;2.31;96.00;101711.06;5020849;28;20941;-51
2022/03/23 06:26:45;;;;;;;0.30;0.20;;;;;;;2.42;96.71;101709.63;5027154;28;20502;-50
2022/03/23 06:29:12;;;;;;;0.43;0.43;;;;;;;2.52;95.74;101714.28;5026768;28;20451;-49
2022/03/23 06:31:38;;;;;;;2.20;2.20;;;;;;;2.52;94.70;101711.66;5020281;28;20475;-51
2022/03/23 06:34:05;;;;;;;0.30;0.20;;;;;;;2.48;94.43;101717.69;5020049;28;20947;-50
2022/03/23 06:36:32;;;;;;;0.77;0.77;;;;;;;2.59;94.21;101718.84;5020161;28;20459;-50
2022/03/23 06:38:58;;;;;;;0.30;0.20;;;;;;;2.68;94.52;101718.22;5020396;28;20468;-49
2022/03/23 06:41:25;;;;;;;2.37;1.70;;;;;;;2.89;93.78;101720.53;5026950;28;20515;-51
2022/03/23 06:43:54;;;;;;;0.20;0.13;;;;;;;2.96;93.16;101722.44;5026989;28;20543;-50
2022/03/23 06:46:20;;;;;;;3.57;1.97;;;;;;;2.96;92.57;101723.31;5020888;28;20475;-48
2022/03/23 06:48:47;;;;;;;0.20;0.20;;;;;;;3.24;93.24;101724.00;5020079;28;20484;-51
2022/03/23 06:51:15;;;;;;;0.27;0.20;;;;;;;3.20;92.14;101725.69;5025662;28;20472;-50
2022/03/23 06:53:42;;;;;;;0.20;0.10;;;;;;;3.28;92.25;101728.47;5026734;28;20968;-49
2022/03/23 06:56:09;;;;;;;0.20;0.10;;;;;;;3.31;92.04;101727.69;5021144;28;20455;-51
2022/03/23 06:58:36;;;;;;;0.37;0.37;;;;;;;3.80;91.52;101725.31;5019884;28;20494;-50
2022/03/23 07:01:03;;;;;;;0.30;0.20;;;;;;;3.75;90.75;101726.97;5025008;28;20977;-49
2022/03/23 07:03:30;;;;;;;0.30;0.20;;;;;;;3.89;90.77;101726.38;5026088;28;20466;-51
2022/03/23 07:05:57;;;;;;;1.27;1.27;;;;;;;3.79;90.64;101723.56;5022226;28;20451;-51
2022/03/23 07:11:09;;;;;;;0.83;0.83;;;;;;;4.05;90.65;101729.38;5021826;28;20891;-51
2022/03/23 07:13:36;;;;;;;0.20;0.20;;;;;;;4.03;92.03;101727.56;5030582;28;20454;-51
2022/03/23 07:16:02;;;;;;;0.50;0.50;;;;;;;4.09;92.42;101730.31;5031167;28;20494;-49
2022/03/23 07:18:29;;;;;;;0.20;0.20;;;;;;;4.30;91.97;101740.41;5019443;28;20594;-50
2022/03/23 07:20:57;;;;;;;0.20;0.20;;;;;;;4.75;90.67;101737.78;5020887;28;20484;-47
2022/03/23 07:23:23;;;;;;;1.13;1.10;;;;;;;4.88;89.96;101738.91;5026035;28;20457;-47
2022/03/23 07:25:50;;;;;;;0.30;0.30;;;;;;;5.04;88.67;101738.28;5025453;28;20448;-47
2022/03/23 07:28:17;;;;;;;14.60;4.13;;;;;;;4.96;89.09;101738.19;5018995;28;20497;-47
2022/03/23 07:30:43;;;;;;;0.20;0.20;;;;;;;5.21;88.62;101742.13;5019987;28;20472;-47
2022/03/23 07:33:10;;;;;;;0.30;0.20;;;;;;;5.21;88.37;101738.59;5025834;28;20476;-47
2022/03/23 07:35:37;;;;;;;0.47;0.43;;;;;;;5.37;86.79;101740.63;5026356;28;20494;-47
2022/03/23 07:38:04;;;;;;;0.30;0.10;;;;;;;5.32;87.24;101743.16;5006917;28;20452;-47
2022/03/23 07:40:31;;;;;;;0.30;0.20;;;;;;;5.61;85.45;101743.63;5018643;28;20502;-48
2022/03/23 07:42:57;;;;;;;0.30;0.20;;;;;;;5.74;85.98;101742.06;5025650;28;20449;-47
2022/03/23 07:45:24;;;;;;;0.27;0.20;;;;;;;5.79;86.09;101743.03;5018497;28;20468;-47
2022/03/23 07:47:50;;;;;;;0.30;0.20;;;;;;;5.91;85.66;101743.25;5025373;28;20460;-48
2022/03/23 07:50:17;;;;;;;0.30;0.23;;;;;;;6.17;85.63;101742.69;5024548;28;20473;-47
2022/03/23 07:52:44;;;;;;;2.20;1.40;;;;;;;6.31;84.84;101734.94;5019577;28;20964;-46
2022/03/23 07:55:11;;;;;;;0.30;0.20;;;;;;;6.27;84.01;101735.75;5018852;28;21056;-48
2022/03/23 07:57:38;;;;;;;0.30;0.20;;;;;;;6.41;84.75;101739.44;5025030;28;20527;-47
2022/03/23 08:00:11;;;;;;;0.60;0.60;;;;;;;6.82;83.70;101742.56;5025394;28;20478;-47
2022/03/23 08:02:38;;;;;;;1.57;1.57;;;;;;;6.91;81.92;101739.13;5021008;28;20474;-46
2022/03/23 08:05:07;;;;;;;0.30;0.20;;;;;;;6.76;82.66;101735.47;5018978;28;20451;-46
2022/03/23 08:07:33;;;;;;;0.80;0.80;;;;;;;7.03;80.80;101736.59;5023818;28;20448;-46
2022/03/23 08:10:00;;;;;;;0.70;0.70;;;;;;;6.90;81.75;101738.25;5024460;28;20464;-46
2022/03/23 08:12:27;;;;;;;0.30;0.10;;;;;;;6.90;82.24;101743.53;5021201;28;20452;-46
2022/03/23 08:14:53;;;;;;;3.43;1.67;;;;;;;7.09;82.19;101750.75;5030275;28;20492;-46
2022/03/23 08:17:20;;;;;;;1.73;1.63;;;;;;;7.39;80.40;101739.53;5023418;28;20476;-46
2022/03/23 08:20:32;;;;;;;0.30;0.20;;;;;;;7.13;80.97;101742.00;5025381;28;20506;-46
2022/03/23 08:22:33;;;;;;;0.30;0.20;;;;;;;7.41;80.65;101737.81;5023612;28;20474;-46
2022/03/23 08:25:00;;;;;;;0.40;0.40;;;;;;;7.55;78.86;101735.28;5018796;28;20483;-47
2022/03/23 08:27:27;;;;;;;0.30;0.20;;;;;;;7.81;76.98;101731.88;5019842;28;20456;-46
2022/03/23 08:29:54;;;;;;;1.93;1.90;;;;;;;8.06;75.67;101730.25;5025145;28;20472;-47
2022/03/23 08:32:23;;;;;;;0.30;0.20;;;;;;;7.94;73.65;101725.78;5024513;28;20465;-46
2022/03/23 08:34:50;;;;;;;0.30;0.20;;;;;;;8.26;73.34;101720.66;5018084;28;20495;-47
2022/03/23 08:37:16;;;;;;;0.47;0.47;;;;;;;8.16;74.13;101725.03;5018594;28;20453;-47
2022/03/23 08:39:43;;;;;;;6.53;5.90;;;;;;;8.33;72.94;101719.78;5025040;28;20449;-46
2022/03/23 08:42:10;;;;;;;2.53;0.83;;;;;;;8.67;69.58;101719.94;5025410;28;20459;-47
2022/03/23 08:44:37;;;;;;;1.77;1.73;;;;;;;8.84;70.86;101716.44;5016954;28;20545;-47
2022/03/23 08:47:04;;;;;;;0.30;0.20;;;;;;;9.16;68.18;101723.50;5025043;28;20452;-46
2022/03/23 08:49:30;;;;;;;0.30;0.20;;;;;;;9.25;68.31;101723.53;5018981;28;20513;-46
2022/03/23 08:51:57;;;;;;;0.30;0.20;;;;;;;9.64;68.07;101719.97;5018225;28;20469;-46
2022/03/23 08:54:24;;;;;;;0.30;0.20;;;;;;;9.27;66.90;101720.88;5024217;28;20477;-46
2022/03/23 08:56:51;;;;;;;0.50;0.50;;;;;;;9.42;67.08;101723.50;5024940;28;20867;-47
2022/03/23 08:59:17;;;;;;;3.93;1.23;;;;;;;9.59;66.93;101719.06;5022343;28;20510;-47
2022/03/23 09:01:44;;;;;;;0.40;0.30;;;;;;;9.78;66.41;101718.16;5021966;28;20508;-47
2022/03/23 09:04:11;;;;;;;3.50;0.87;;;;;;;10.14;66.07;101715.38;5027591;28;20502;-46
2022/03/23 09:06:37;;;;;;;0.30;0.20;;;;;;;10.41;64.55;101720.59;5028467;28;20964;-46
2022/03/23 09:09:04;;;;;;;0.40;0.30;;;;;;;10.50;63.16;101722.34;5023009;28;20483;-47
2022/03/23 09:11:31;;;;;;;0.30;0.20;;;;;;;10.39;62.73;101720.63;5021792;28;20472;-46
2022/03/23 09:13:58;;;;;;;4.53;1.67;;;;;;;10.57;62.96;101717.00;5034815;28;20455;-47
2022/03/23 09:16:25;;;;;;;0.43;0.40;;;;;;;10.79;60.72;101723.06;5031508;28;20455;-46
2022/03/23 09:18:52;;;;;;;0.30;0.20;;;;;;;10.96;59.64;101720.28;5023383;28;20456;-47
2022/03/23 09:21:19;;;;;;;1.33;1.07;;;;;;;10.97;60.08;101714.09;5021400;28;20993;-46
2022/03/23 09:23:46;;;;;;;0.97;0.97;;;;;;;11.11;59.36;101708.66;5027135;28;20456;-47
2022/03/23 09:26:13;;;;;;;0.40;0.40;;;;;;;11.05;60.62;101709.56;5028353;28;20821;-49
2022/03/23 09:28:40;;;;;;;3.80;1.23;;;;;;;11.45;59.66;101703.91;5023858;28;20452;-47
2022/03/23 09:31:06;;;;;;;0.50;0.50;;;;;;;11.71;58.48;101707.22;5021888;28;20472;-47
2022/03/23 09:33:33;;;;;;;0.30;0.20;;;;;;;11.81;57.51;101702.72;5026072;28;21069;-46
2022/03/23 09:36:00;;;;;;;0.40;0.40;;;;;;;12.00;56.13;101700.72;5027920;28;20913;-46
2022/03/23 09:38:26;;;;;;;0.47;0.47;;;;;;;11.79;55.08;101708.06;5024415;28;20487;-47
2022/03/23 09:40:54;;;;;;;0.43;0.43;;;;;;;12.15;53.53;101706.72;5021440;28;21138;-46
2022/03/23 09:43:23;;;;;;;4.47;2.47;;;;;;;12.37;53.39;101703.81;5025508;28;20930;-46
2022/03/23 09:45:51;;;;;;;1.90;0.70;;;;;;;12.53;51.68;101702.69;5022460;28;20440;-48
2022/03/23 09:48:25;;;;;;;0.30;0.20;;;;;;;12.50;51.71;101702.75;5024292;28;20506;-47
2022/03/23 09:50:55;;;;;;;10.37;2.87;;;;;;;12.63;50.05;101703.44;5026592;28;20472;-46
2022/03/23 09:53:25;;;;;;;0.50;0.50;;;;;;;12.78;50.68;101697.00;5026573;28;20448;-47
2022/03/23 09:55:52;;;;;;;0.40;0.40;;;;;;;12.91;51.78;101701.25;5020836;28;20845;-47
2022/03/23 09:58:20;;;;;;;0.30;0.20;;;;;;;13.03;51.40;101695.72;5021441;28;20842;-47
2022/03/23 10:00:48;;;;;;;3.80;1.53;;;;;;;13.09;51.57;101694.72;5027680;28;21059;-47
2022/03/23 10:03:59;;;;;;;0.30;0.20;;;;;;;13.20;50.03;101701.69;5027642;28;20448;-47
2022/03/23 10:06:49;;;;;;;1.63;1.20;;;;;;;13.68;51.28;101699.06;5021615;28;20460;-47
2022/03/23 10:09:25;;;;;;;0.40;0.40;;;;;;;13.34;52.72;101694.34;5009406;28;20456;-46
2022/03/23 10:12:16;;;;;;;1.33;1.33;;;;;;;13.66;52.23;101686.63;5020929;28;20545;-47
2022/03/23 10:15:13;;;;;;;0.60;0.57;;;;;;;13.66;51.91;101694.66;5031353;28;20483;-47
2022/03/23 10:18:15;;;;;;;5.17;1.57;;;;;;;13.75;52.16;101692.69;5020842;28;20488;-46
2022/03/23 10:20:41;;;;;;;0.43;0.43;;;;;;;14.28;51.08;101687.19;5005098;28;20495;-47
2022/03/23 10:23:08;;;;;;;3.30;2.30;;;;;;;14.39;49.28;101693.16;5028119;28;20507;-49
2022/03/23 10:25:37;;;;;;;1.47;1.47;;;;;;;14.38;48.67;101689.59;5023704;28;20452;-47
2022/03/23 10:28:15;;;;;;;0.63;0.60;;;;;;;14.33;46.18;101693.31;5020582;28;20452;-47
2022/03/23 10:30:43;;;;;;;1.63;1.53;;;;;;;14.41;45.05;101686.88;5020470;28;20464;-48
2022/03/23 10:33:22;;;;;;;2.13;2.03;;;;;;;14.40;45.36;101686.91;5027093;28;20456;-48
2022/03/23 10:35:50;;;;;;;1.80;1.80;;;;;;;14.40;45.25;101678.91;5026676;28;20475;-47
2022/03/23 10:38:22;;;;;;;2.50;1.47;;;;;;;14.64;44.87;101677.47;5021483;28;20452;-46
2022/03/23 10:40:51;;;;;;;0.73;0.73;;;;;;;14.74;43.24;101681.72;5020267;28;20468;-47
2022/03/23 10:43:36;;;;;;;0.40;0.30;;;;;;;14.91;43.78;101671.47;5024426;28;20479;-47
2022/03/23 10:46:10;;;;;;;1.47;1.27;;;;;;;15.11;40.19;101669.19;5027031;28;20441;-49
2022/03/23 10:48:52;;;;;;;0.97;0.97;;;;;;;15.17;41.80;101665.47;5026360;28;20462;-46
2022/03/23 10:51:30;;;;;;;1.30;1.30;;;;;;;15.44;42.90;101658.50;5024906;28;20496;-47
2022/03/23 10:53:57;;;;;;;0.63;0.63;;;;;;;15.77;43.80;101654.09;5027014;28;20444;-47
2022/03/23 10:56:42;;;;;;;5.97;1.10;;;;;;;15.65;43.99;101660.66;5023768;28;21055;-47
2022/03/23 10:59:15;;;;;;;0.60;0.60;;;;;;;16.00;43.50;101658.75;5020256;28;20517;-47
2022/03/23 11:01:55;;;;;;;0.40;0.40;;;;;;;16.26;44.20;101647.25;5019267;28;20473;-47
2022/03/23 11:04:22;;;;;;;1.23;1.23;;;;;;;16.30;43.62;101647.13;5023985;28;20453;-47
2022/03/23 11:06:49;;;;;;;3.60;1.70;;;;;;;16.19;43.51;101651.06;5027078;28;20447;-47
2022/03/23 11:18:07;;;;;;;0.63;0.63;;;;;;;16.71;41.87;101628.88;5029992;28;20963;-47
2022/03/23 11:20:39;;;;;;;1.03;0.40;;;;;;;16.71;41.30;101631.53;5021146;28;20533;-47
2022/03/23 11:23:26;;;;;;;0.40;0.40;;;;;;;16.65;41.49;101633.53;5026940;28;20461;-47
2022/03/23 11:25:56;;;;;;;1.03;1.03;;;;;;;16.70;41.79;101631.59;5025041;28;20498;-48
2022/03/23 11:28:28;;;;;;;0.97;0.93;;;;;;;16.69;41.62;101630.72;5006143;28;21004;-47
2022/03/23 11:30:56;;;;;;;7.97;1.70;;;;;;;16.46;40.98;101623.41;5019228;28;20469;-47
2022/03/23 11:33:25;;;;;;;1.10;1.00;;;;;;;16.59;41.72;101614.03;5025135;28;20858;-47
2022/03/23 11:35:53;;;;;;;6.70;2.87;;;;;;;16.53;40.26;101618.69;5025936;28;20491;-48
2022/03/23 11:38:27;;;;;;;2.93;2.83;;;;;;;16.88;41.14;101622.97;5020481;28;20470;-46
2022/03/23 11:40:56;;;;;;;0.50;0.43;;;;;;;16.84;41.22;101608.72;5018838;28;20550;-47
2022/03/23 11:43:25;;;;;;;1.13;1.13;;;;;;;17.21;41.12;101606.63;5023072;28;20503;-48
2022/03/23 11:46:12;;;;;;;2.20;0.77;;;;;;;17.25;40.46;101611.81;5025956;28;20548;-48
2022/03/23 11:49:00;;;;;;;4.07;3.20;;;;;;;17.47;40.39;101598.50;5025483;28;20487;-47
2022/03/23 11:51:54;;;;;;;17.67;4.67;;;;;;;17.38;41.14;101599.69;5023201;28;20471;-47
2022/03/23 11:57:56;;;;;;;0.47;0.43;;;;;;;17.49;40.18;101596.63;4998295;28;20476;-47
2022/03/23 12:00:27;;;;;;;3.77;3.50;;;;;;;17.68;39.86;101602.19;5017859;28;20468;-47
2022/03/23 12:02:54;;;;;;;8.83;3.53;;;;;;;17.51;38.83;101597.44;5022331;28;20444;-47